createdAt,value
2017-09-05T00:00:38.649Z,13.65
2017-09-05T00:01:38.913Z,13.74
2017-09-05T00:02:38.952Z,13.77
2017-09-05T00:03:38.871Z,13.76
2017-09-05T00:04:39.437Z,13.69
2017-09-05T00:05:39.176Z,13.76
2017-09-05T00:06:39.021Z,13.69
2017-09-05T00:07:39.145Z,13.67
2017-09-05T00:08:39.508Z,13.71
2017-09-05T00:09:39.378Z,13.73
2017-09-05T00:10:39.302Z,13.69
2017-09-05T00:11:39.393Z,13.67
2017-09-05T00:12:39.524Z,13.71
2017-09-05T00:13:39.325Z,13.69
2017-09-05T00:14:39.485Z,13.70
2017-09-05T00:15:39.558Z,13.73
2017-09-05T00:16:39.582Z,13.79
2017-09-05T00:17:39.645Z,13.73
2017-09-05T00:18:39.539Z,13.74
2017-09-05T00:19:39.730Z,13.79
2017-09-05T00:20:39.764Z,13.70
2017-09-05T00:21:39.577Z,13.71
2017-09-05T00:22:39.867Z,13.71
2017-09-05T00:23:39.961Z,13.76
2017-09-05T00:24:40.002Z,13.71
2017-09-05T00:25:40.213Z,13.73
2017-09-05T00:26:39.941Z,13.70
2017-09-05T00:27:40.192Z,13.76
2017-09-05T00:28:40.161Z,13.73
2017-09-05T00:29:40.364Z,13.77
2017-09-05T00:30:40.331Z,13.77
2017-09-05T00:31:40.242Z,13.81
2017-09-05T00:32:40.252Z,13.77
2017-09-05T00:33:40.349Z,13.81
2017-09-05T00:34:40.371Z,13.77
2017-09-05T00:35:40.640Z,13.80
2017-09-05T00:36:40.573Z,13.87
2017-09-05T00:37:40.865Z,13.79
2017-09-05T00:38:41.119Z,13.80
2017-09-05T00:39:40.749Z,13.80
2017-09-05T00:40:40.989Z,13.80
2017-09-05T00:41:40.860Z,13.81
2017-09-05T00:42:40.857Z,13.77
2017-09-05T00:43:40.969Z,13.80
2017-09-05T00:44:41.352Z,13.79
2017-09-05T00:45:40.792Z,13.87
2017-09-05T00:46:41.289Z,13.79
2017-09-05T00:47:40.877Z,13.77
2017-09-05T00:48:41.138Z,13.80
2017-09-05T00:49:41.616Z,13.83
2017-09-05T00:50:41.135Z,13.81
2017-09-05T00:51:41.465Z,13.83
2017-09-05T00:52:41.609Z,13.87
2017-09-05T00:53:41.467Z,13.84
2017-09-05T00:54:41.266Z,13.88
2017-09-05T00:55:41.736Z,13.87
2017-09-05T00:56:41.798Z,13.84
2017-09-05T00:57:41.585Z,13.96
2017-09-05T00:58:41.536Z,13.95
2017-09-05T00:59:41.918Z,13.94
2017-09-05T01:00:41.613Z,14.04
2017-09-05T01:01:42.128Z,13.96
2017-09-05T01:02:41.608Z,13.94
2017-09-05T01:03:42.083Z,13.96
2017-09-05T01:04:41.812Z,13.95
2017-09-05T01:05:41.790Z,13.94
2017-09-05T01:06:41.883Z,13.98
2017-09-05T01:07:42.308Z,13.95
2017-09-05T01:08:41.979Z,13.94
2017-09-05T01:09:42.121Z,13.95
2017-09-05T01:10:42.151Z,13.99
2017-09-05T01:11:42.121Z,13.95
2017-09-05T01:12:42.877Z,13.98
2017-09-05T01:13:42.534Z,13.95
2017-09-05T01:14:42.385Z,13.98
2017-09-05T01:15:42.275Z,13.98
2017-09-05T01:16:42.456Z,13.96
2017-09-05T01:17:42.786Z,14.01
2017-09-05T01:18:42.570Z,13.99
2017-09-05T01:19:42.770Z,13.98
2017-09-05T01:20:42.746Z,14.01
2017-09-05T01:21:42.639Z,14.01
2017-09-05T01:22:42.788Z,13.96
2017-09-05T01:23:43.084Z,14.02
2017-09-05T01:24:42.841Z,13.96
2017-09-05T01:25:42.885Z,13.99
2017-09-05T01:26:42.809Z,13.99
2017-09-05T01:27:43.184Z,13.99
2017-09-05T01:28:43.077Z,14.10
2017-09-05T01:29:43.375Z,13.99
2017-09-05T01:30:43.281Z,14.02
2017-09-05T01:31:43.219Z,14.06
2017-09-05T01:32:43.569Z,14.02
2017-09-05T01:33:43.653Z,13.96
2017-09-05T01:34:43.666Z,13.99
2017-09-05T01:35:43.473Z,14.06
2017-09-05T01:36:43.382Z,13.94
2017-09-05T01:37:43.344Z,13.88
2017-09-05T01:38:43.727Z,13.95
2017-09-05T01:39:43.792Z,13.95
2017-09-05T01:40:43.667Z,13.95
2017-09-05T01:41:43.816Z,13.84
2017-09-05T01:42:44.268Z,13.83
2017-09-05T01:43:44.243Z,13.91
2017-09-05T01:44:43.833Z,13.87
2017-09-05T01:45:43.777Z,13.92
2017-09-05T01:46:44.043Z,13.84
2017-09-05T01:47:44.309Z,13.88
2017-09-05T01:48:44.279Z,13.83
2017-09-05T01:49:44.016Z,13.83
2017-09-05T01:50:44.029Z,13.84
2017-09-05T01:51:44.227Z,13.84
2017-09-05T01:52:44.329Z,13.87
2017-09-05T01:53:44.625Z,13.87
2017-09-05T01:54:44.173Z,13.87
2017-09-05T01:55:44.593Z,13.84
2017-09-05T01:56:44.400Z,13.84
2017-09-05T01:57:44.312Z,13.80
2017-09-05T01:58:44.923Z,13.80
2017-09-05T01:59:44.559Z,13.87
2017-09-05T02:00:44.566Z,13.83
2017-09-05T02:01:44.869Z,13.87
2017-09-05T02:02:44.944Z,13.84
2017-09-05T02:03:44.752Z,13.83
2017-09-05T02:04:45.106Z,13.84
2017-09-05T02:05:44.959Z,13.84
2017-09-05T02:06:44.765Z,13.81
2017-09-05T02:07:44.993Z,13.83
2017-09-05T02:08:45.390Z,13.83
2017-09-05T02:09:45.219Z,13.83
2017-09-05T02:10:44.947Z,13.77
2017-09-05T02:11:45.355Z,13.74
2017-09-05T02:12:45.245Z,13.84
2017-09-05T02:13:45.424Z,13.84
2017-09-05T02:14:45.414Z,13.70
2017-09-05T02:15:45.440Z,13.74
2017-09-05T02:16:45.316Z,13.79
2017-09-05T02:17:46.068Z,13.79
2017-09-05T02:18:45.374Z,13.83
2017-09-05T02:19:45.787Z,13.87
2017-09-05T02:20:45.465Z,13.77
2017-09-05T02:21:46.007Z,13.76
2017-09-05T02:22:45.672Z,13.81
2017-09-05T02:23:45.954Z,13.73
2017-09-05T02:24:46.072Z,13.83
2017-09-05T02:25:45.864Z,13.70
2017-09-05T02:26:46.180Z,13.76
2017-09-05T02:27:46.071Z,13.80
2017-09-05T02:28:46.027Z,13.77
2017-09-05T02:29:46.306Z,13.83
2017-09-05T02:30:45.943Z,13.79
2017-09-05T02:31:46.203Z,13.83
2017-09-05T02:32:46.266Z,13.77
2017-09-05T02:33:46.103Z,13.79
2017-09-05T02:34:46.491Z,13.79
2017-09-05T02:35:46.366Z,13.81
2017-09-05T02:36:46.288Z,13.81
2017-09-05T02:37:46.606Z,13.81
2017-09-05T02:38:46.341Z,13.88
2017-09-05T02:39:46.919Z,13.80
2017-09-05T02:40:46.682Z,13.88
2017-09-05T02:41:46.530Z,13.94
2017-09-05T02:42:46.698Z,13.88
2017-09-05T02:43:46.654Z,13.95
2017-09-05T02:44:47.172Z,13.99
2017-09-05T02:45:46.742Z,14.02
2017-09-05T02:46:46.754Z,13.99
2017-09-05T02:47:46.915Z,13.92
2017-09-05T02:48:46.919Z,13.92
2017-09-05T02:49:47.127Z,13.84
2017-09-05T02:50:47.271Z,13.96
2017-09-05T02:51:47.251Z,13.88
2017-09-05T02:52:47.260Z,13.95
2017-09-05T02:53:47.097Z,13.89
2017-09-05T02:54:47.166Z,13.89
2017-09-05T02:55:47.861Z,13.83
2017-09-05T02:56:47.476Z,13.84
2017-09-05T02:57:47.225Z,13.89
2017-09-05T02:58:47.632Z,13.95
2017-09-05T02:59:47.601Z,13.94
2017-09-05T03:00:47.833Z,13.95
2017-09-05T03:01:47.667Z,13.98
2017-09-05T03:02:47.770Z,13.92
2017-09-05T03:03:48.048Z,13.95
2017-09-05T03:04:47.666Z,13.92
2017-09-05T03:05:47.922Z,13.94
2017-09-05T03:06:47.855Z,13.91
2017-09-05T03:07:47.811Z,13.96
2017-09-05T03:08:47.855Z,13.83
2017-09-05T03:09:47.859Z,13.95
2017-09-05T03:10:48.480Z,13.91
2017-09-05T03:11:48.262Z,13.95
2017-09-05T03:12:48.012Z,13.96
2017-09-05T03:13:48.556Z,13.98
2017-09-05T03:14:48.329Z,13.94
2017-09-05T03:15:48.275Z,13.87
2017-09-05T03:16:48.512Z,13.88
2017-09-05T03:17:48.241Z,13.95
2017-09-05T03:18:48.472Z,13.98
2017-09-05T03:19:48.429Z,13.95
2017-09-05T03:20:48.454Z,13.89
2017-09-05T03:21:48.862Z,13.96
2017-09-05T03:22:48.556Z,13.91
2017-09-05T03:23:48.869Z,13.92
2017-09-05T03:24:48.759Z,13.87
2017-09-05T03:25:48.647Z,13.92
2017-09-05T03:26:48.831Z,13.89
2017-09-05T03:27:49.147Z,13.89
2017-09-05T03:28:49.202Z,13.88
2017-09-05T03:29:49.084Z,13.88
2017-09-05T03:30:49.102Z,13.87
2017-09-05T03:31:49.107Z,13.84
2017-09-05T03:32:50.271Z,13.84
2017-09-05T03:33:49.431Z,13.87
2017-09-05T03:34:49.828Z,13.88
2017-09-05T03:35:49.397Z,13.81
2017-09-05T03:36:49.399Z,13.84
2017-09-05T03:37:49.747Z,13.79
2017-09-05T03:38:49.343Z,13.79
2017-09-05T03:39:49.405Z,13.84
2017-09-05T03:40:49.616Z,13.81
2017-09-05T03:41:49.625Z,13.87
2017-09-05T03:42:49.839Z,13.81
2017-09-05T03:43:49.667Z,13.84
2017-09-05T03:44:49.794Z,13.80
2017-09-05T03:45:49.681Z,13.81
2017-09-05T03:46:49.783Z,13.89
2017-09-05T03:47:50.010Z,13.89
2017-09-05T03:48:51.001Z,13.91
2017-09-05T03:49:50.042Z,13.79
2017-09-05T03:50:49.979Z,13.87
2017-09-05T03:51:49.896Z,13.83
2017-09-05T03:52:50.417Z,13.83
2017-09-05T03:53:50.260Z,13.88
2017-09-05T03:54:50.157Z,13.84
2017-09-05T03:55:50.450Z,13.84
2017-09-05T03:56:50.358Z,13.88
2017-09-05T03:57:50.259Z,13.83
2017-09-05T03:58:50.822Z,13.92
2017-09-05T03:59:50.369Z,13.89
2017-09-05T04:00:50.497Z,13.95
2017-09-05T04:01:50.792Z,13.91
2017-09-05T04:02:50.415Z,13.89
2017-09-05T04:03:50.697Z,13.81
2017-09-05T04:04:50.542Z,13.92
2017-09-05T04:05:50.774Z,13.94
2017-09-05T04:06:50.642Z,13.94
2017-09-05T04:07:51.188Z,13.95
2017-09-05T04:08:51.205Z,13.92
2017-09-05T04:09:50.822Z,13.96
2017-09-05T04:10:50.818Z,13.95
2017-09-05T04:11:50.942Z,13.96
2017-09-05T04:12:51.402Z,13.83
2017-09-05T04:13:51.335Z,13.91
2017-09-05T04:14:51.189Z,13.87
2017-09-05T04:15:51.241Z,13.99
2017-09-05T04:16:51.205Z,13.94
2017-09-05T04:17:51.193Z,13.98
2017-09-05T04:18:51.796Z,13.98
2017-09-05T04:19:51.291Z,13.94
2017-09-05T04:20:51.746Z,13.95
2017-09-05T04:21:51.993Z,13.96
2017-09-05T04:22:51.579Z,13.94
2017-09-05T04:23:52.274Z,13.95
2017-09-05T04:24:51.600Z,13.94
2017-09-05T04:25:51.811Z,13.92
2017-09-05T04:26:51.937Z,13.99
2017-09-05T04:27:51.777Z,14.01
2017-09-05T04:28:51.964Z,13.98
2017-09-05T04:29:52.145Z,13.94
2017-09-05T04:30:51.952Z,14.04
2017-09-05T04:31:52.292Z,14.01
2017-09-05T04:32:52.240Z,14.07
2017-09-05T04:33:52.015Z,13.94
2017-09-05T04:34:52.218Z,13.99
2017-09-05T04:35:52.439Z,14.07
2017-09-05T04:36:52.796Z,13.99
2017-09-05T04:37:52.243Z,13.94
2017-09-05T04:38:52.208Z,14.07
2017-09-05T04:39:52.645Z,14.01
2017-09-05T04:40:52.552Z,13.99
2017-09-05T04:41:52.787Z,13.99
2017-09-05T04:42:52.587Z,14.01
2017-09-05T04:43:52.454Z,14.01
2017-09-05T04:44:53.025Z,14.09
2017-09-05T04:45:52.642Z,14.09
2017-09-05T04:46:52.712Z,14.07
2017-09-05T04:47:53.217Z,14.16
2017-09-05T04:48:52.980Z,14.19
2017-09-05T04:49:53.283Z,14.16
2017-09-05T04:50:52.978Z,14.19
2017-09-05T04:51:52.902Z,14.07
2017-09-05T04:52:53.086Z,14.07
2017-09-05T04:53:53.389Z,14.12
2017-09-05T04:54:53.332Z,14.13
2017-09-05T04:55:53.032Z,14.19
2017-09-05T04:56:53.159Z,14.17
2017-09-05T04:57:53.131Z,14.12
2017-09-05T04:58:53.695Z,14.12
2017-09-05T04:59:53.681Z,14.19
2017-09-05T05:00:53.648Z,14.13
2017-09-05T05:01:53.723Z,14.24
2017-09-05T05:02:53.535Z,14.20
2017-09-05T05:03:53.446Z,14.21
2017-09-05T05:04:53.524Z,14.24
2017-09-05T05:05:54.175Z,14.31
2017-09-05T05:06:53.974Z,14.21
2017-09-05T05:07:53.822Z,14.31
2017-09-05T05:08:53.744Z,14.21
2017-09-05T05:09:53.761Z,14.25
2017-09-05T05:10:54.335Z,14.25
2017-09-05T05:11:53.865Z,14.32
2017-09-05T05:12:54.002Z,14.25
2017-09-05T05:13:53.953Z,14.34
2017-09-05T05:14:54.181Z,14.29
2017-09-05T05:15:54.629Z,14.29
2017-09-05T05:16:54.144Z,14.25
2017-09-05T05:17:54.538Z,14.31
2017-09-05T05:18:54.370Z,14.29
2017-09-05T05:19:54.626Z,14.29
2017-09-05T05:20:54.953Z,14.31
2017-09-05T05:21:54.523Z,14.32
2017-09-05T05:22:54.744Z,14.32
2017-09-05T05:23:54.697Z,14.32
2017-09-05T05:24:54.617Z,14.28
2017-09-05T05:25:54.628Z,14.27
2017-09-05T05:26:55.157Z,14.38
2017-09-05T05:27:54.661Z,14.39
2017-09-05T05:28:54.972Z,14.38
2017-09-05T05:29:55.194Z,14.37
2017-09-05T05:30:55.384Z,14.38
2017-09-05T05:31:55.397Z,14.39
2017-09-05T05:32:55.449Z,14.49
2017-09-05T05:33:55.246Z,14.39
2017-09-05T05:34:55.091Z,14.54
2017-09-05T05:35:55.142Z,14.49
2017-09-05T05:36:55.244Z,14.49
2017-09-05T05:37:55.790Z,14.49
2017-09-05T05:38:55.501Z,14.47
2017-09-05T05:39:55.573Z,14.57
2017-09-05T05:40:55.466Z,14.50
2017-09-05T05:41:55.361Z,14.56
2017-09-05T05:42:55.752Z,14.52
2017-09-05T05:43:55.671Z,14.53
2017-09-05T05:44:55.829Z,14.60
2017-09-05T05:45:55.758Z,14.62
2017-09-05T05:46:55.752Z,14.57
2017-09-05T05:47:56.222Z,14.67
2017-09-05T05:48:55.950Z,14.74
2017-09-05T05:49:55.854Z,14.68
2017-09-05T05:50:55.773Z,14.67
2017-09-05T05:51:56.100Z,14.67
2017-09-05T05:52:56.372Z,14.71
2017-09-05T05:53:56.312Z,14.75
2017-09-05T05:54:56.023Z,14.72
2017-09-05T05:55:56.087Z,14.71
2017-09-05T05:56:56.113Z,14.81
2017-09-05T05:57:56.287Z,14.81
2017-09-05T05:58:56.378Z,14.90
2017-09-05T05:59:56.277Z,14.88
2017-09-05T06:00:56.341Z,14.83
2017-09-05T06:01:56.443Z,14.91
2017-09-05T06:02:56.879Z,14.83
2017-09-05T06:03:56.446Z,14.90
2017-09-05T06:04:56.781Z,14.98
2017-09-05T06:05:56.939Z,14.95
2017-09-05T06:06:56.704Z,14.93
2017-09-05T06:07:56.637Z,14.93
2017-09-05T06:08:57.155Z,15.03
2017-09-05T06:09:56.767Z,15.06
2017-09-05T06:10:56.795Z,15.02
2017-09-05T06:11:56.897Z,15.02
2017-09-05T06:12:56.821Z,14.95
2017-09-05T06:13:57.806Z,14.99
2017-09-05T06:14:57.128Z,14.98
2017-09-05T06:15:57.371Z,15.08
2017-09-05T06:16:57.121Z,15.08
2017-09-05T06:17:57.485Z,15.09
2017-09-05T06:18:57.380Z,15.12
2017-09-05T06:19:57.364Z,15.17
2017-09-05T06:20:57.918Z,15.08
2017-09-05T06:21:57.427Z,15.09
2017-09-05T06:22:57.440Z,15.11
2017-09-05T06:23:57.443Z,15.08
2017-09-05T06:24:57.959Z,15.12
2017-09-05T06:25:57.573Z,15.11
2017-09-05T06:26:57.568Z,15.11
2017-09-05T06:27:57.685Z,15.12
2017-09-05T06:28:57.848Z,15.11
2017-09-05T06:29:58.241Z,15.27
2017-09-05T06:30:57.869Z,15.19
2017-09-05T06:31:57.825Z,15.21
2017-09-05T06:32:58.047Z,15.24
2017-09-05T06:33:57.963Z,15.26
2017-09-05T06:34:58.458Z,15.21
2017-09-05T06:35:58.369Z,15.38
2017-09-05T06:36:58.277Z,15.35
2017-09-05T06:37:58.263Z,15.36
2017-09-05T06:38:58.548Z,15.35
2017-09-05T06:39:58.693Z,15.33
2017-09-05T06:40:58.427Z,15.41
2017-09-05T06:41:58.521Z,15.35
2017-09-05T06:42:58.522Z,15.35
2017-09-05T06:43:58.549Z,15.38
2017-09-05T06:44:58.482Z,15.30
2017-09-05T06:45:58.907Z,15.38
2017-09-05T06:46:58.691Z,15.33
2017-09-05T06:47:58.621Z,15.27
2017-09-05T06:48:58.980Z,15.36
2017-09-05T06:49:58.876Z,15.27
2017-09-05T06:50:58.988Z,15.30
2017-09-05T06:51:58.706Z,15.35
2017-09-05T06:52:58.833Z,15.30
2017-09-05T06:53:58.868Z,15.39
2017-09-05T06:54:59.180Z,15.33
2017-09-05T06:55:59.361Z,15.33
2017-09-05T06:56:59.146Z,15.35
2017-09-05T06:57:59.077Z,15.39
2017-09-05T06:58:59.437Z,15.48
2017-09-05T06:59:59.184Z,15.52
2017-09-05T07:00:59.943Z,15.45
2017-09-05T07:01:59.393Z,15.59
2017-09-05T07:02:59.357Z,15.54
2017-09-05T07:03:59.619Z,15.59
2017-09-05T07:04:59.723Z,15.54
2017-09-05T07:05:59.521Z,15.57
2017-09-05T07:06:59.666Z,15.59
2017-09-05T07:08:00.146Z,15.63
2017-09-05T07:08:59.988Z,15.59
2017-09-05T07:09:59.672Z,15.60
2017-09-05T07:11:00.076Z,15.54
2017-09-05T07:12:00.271Z,15.59
2017-09-05T07:13:00.018Z,15.66
2017-09-05T07:14:00.107Z,15.74
2017-09-05T07:14:59.978Z,15.70
2017-09-05T07:16:00.372Z,15.82
2017-09-05T07:17:00.368Z,15.86
2017-09-05T07:18:00.293Z,15.96
2017-09-05T07:19:00.264Z,16.09
2017-09-05T07:20:00.411Z,16.23
2017-09-05T07:21:00.225Z,16.68
2017-09-05T07:22:00.616Z,16.75
2017-09-05T07:23:00.318Z,16.89
2017-09-05T07:24:00.560Z,17.17
2017-09-05T07:25:00.663Z,17.62
2017-09-05T07:26:00.621Z,17.40
2017-09-05T07:27:00.870Z,17.46
2017-09-05T07:28:01.125Z,17.26
2017-09-05T07:29:00.708Z,17.26
2017-09-05T07:30:00.913Z,17.26
2017-09-05T07:31:01.210Z,17.29
2017-09-05T07:32:01.398Z,17.17
2017-09-05T07:33:00.856Z,17.13
2017-09-05T07:34:00.871Z,16.96
2017-09-05T07:35:00.897Z,16.86
2017-09-05T07:36:01.242Z,16.78
2017-09-05T07:37:01.323Z,16.88
2017-09-05T07:38:01.597Z,16.78
2017-09-05T07:39:01.354Z,16.80
2017-09-05T07:40:01.155Z,16.77
2017-09-05T07:41:01.684Z,16.96
2017-09-05T07:42:01.730Z,17.11
2017-09-05T07:43:01.925Z,17.48
2017-09-05T07:44:01.824Z,18.00
2017-09-05T07:45:01.421Z,17.79
2017-09-05T07:46:01.808Z,17.67
2017-09-05T07:47:01.714Z,17.67
2017-09-05T07:48:01.704Z,17.47
2017-09-05T07:49:01.904Z,17.44
2017-09-05T07:50:01.887Z,17.40
2017-09-05T07:51:02.148Z,17.32
2017-09-05T07:52:02.227Z,17.30
2017-09-05T07:53:02.066Z,17.40
2017-09-05T07:54:01.959Z,17.36
2017-09-05T07:55:02.064Z,17.66
2017-09-05T07:56:02.128Z,18.28
2017-09-05T07:57:02.291Z,18.34
2017-09-05T07:58:02.730Z,18.12
2017-09-05T07:59:02.501Z,18.03
2017-09-05T08:00:02.240Z,18.10
2017-09-05T08:01:02.404Z,18.13
2017-09-05T08:02:02.354Z,18.21
2017-09-05T08:03:02.429Z,18.31
2017-09-05T08:04:02.799Z,18.19
2017-09-05T08:05:02.547Z,18.15
2017-09-05T08:06:02.789Z,18.02
2017-09-05T08:07:02.883Z,18.15
2017-09-05T08:08:02.807Z,18.40
2017-09-05T08:09:03.225Z,18.34
2017-09-05T08:10:02.951Z,18.24
2017-09-05T08:11:03.446Z,18.15
2017-09-05T08:12:03.038Z,18.10
2017-09-05T08:13:02.957Z,17.89
2017-09-05T08:14:03.250Z,17.81
2017-09-05T08:15:03.091Z,17.70
2017-09-05T08:16:03.089Z,17.66
2017-09-05T08:17:03.090Z,17.66
2017-09-05T08:18:03.293Z,17.74
2017-09-05T08:19:03.681Z,17.71
2017-09-05T08:20:03.624Z,17.62
2017-09-05T08:21:03.526Z,17.62
2017-09-05T08:22:03.566Z,17.62
2017-09-05T08:23:03.477Z,17.64
2017-09-05T08:24:03.818Z,18.86
2017-09-05T08:25:03.819Z,18.97
2017-09-05T08:26:05.313Z,18.80
2017-09-05T08:27:03.742Z,18.64
2017-09-05T08:28:03.995Z,18.49
2017-09-05T08:29:04.162Z,18.58
2017-09-05T08:30:03.851Z,18.37
2017-09-05T08:31:03.886Z,18.37
2017-09-05T08:32:04.136Z,18.28
2017-09-05T08:33:04.225Z,18.34
2017-09-05T08:34:04.083Z,18.50
2017-09-05T08:35:04.319Z,18.98
2017-09-05T08:36:04.033Z,19.33
2017-09-05T08:37:04.245Z,19.51
2017-09-05T08:38:05.735Z,19.68
2017-09-05T08:39:04.899Z,20.15
2017-09-05T08:40:04.748Z,20.80
2017-09-05T08:41:04.673Z,21.11
2017-09-05T08:42:04.569Z,20.64
2017-09-05T08:43:04.551Z,20.24
2017-09-05T08:44:04.492Z,19.50
2017-09-05T08:45:04.607Z,19.31
2017-09-05T08:46:04.868Z,19.11
2017-09-05T08:47:04.833Z,18.79
2017-09-05T08:48:04.598Z,18.72
2017-09-05T08:49:05.009Z,18.54
2017-09-05T08:50:05.094Z,18.52
2017-09-05T08:51:05.166Z,18.39
2017-09-05T08:52:04.993Z,18.12
2017-09-05T08:53:05.026Z,18.15
2017-09-05T08:54:05.131Z,18.04
2017-09-05T08:55:05.303Z,17.97
2017-09-05T08:56:05.272Z,17.88
2017-09-05T08:57:05.305Z,17.91
2017-09-05T08:58:05.540Z,17.81
2017-09-05T08:59:05.808Z,17.81
2017-09-05T09:00:05.444Z,17.87
2017-09-05T09:01:05.438Z,17.76
2017-09-05T09:02:05.596Z,17.82
2017-09-05T09:03:05.430Z,17.69
2017-09-05T09:04:05.508Z,17.66
2017-09-05T09:05:06.087Z,17.70
2017-09-05T09:06:06.156Z,17.74
2017-09-05T09:07:05.653Z,17.73
2017-09-05T09:08:05.864Z,17.81
2017-09-05T09:09:06.106Z,17.81
2017-09-05T09:10:06.258Z,17.81
2017-09-05T09:11:06.029Z,17.79
2017-09-05T09:12:07.040Z,17.92
2017-09-05T09:13:05.995Z,17.85
2017-09-05T09:14:06.293Z,17.99
2017-09-05T09:15:06.146Z,18.02
2017-09-05T09:16:06.612Z,18.09
2017-09-05T09:17:06.634Z,18.24
2017-09-05T09:18:06.566Z,18.33
2017-09-05T09:19:06.361Z,18.31
2017-09-05T09:20:06.426Z,18.33
2017-09-05T09:21:06.934Z,18.39
2017-09-05T09:22:07.343Z,18.34
2017-09-05T09:23:06.661Z,18.47
2017-09-05T09:24:06.904Z,18.92
2017-09-05T09:25:07.164Z,19.54
2017-09-05T09:26:06.641Z,20.09
2017-09-05T09:27:06.902Z,20.47
2017-09-05T09:28:06.861Z,20.30
2017-09-05T09:29:07.184Z,20.05
2017-09-05T09:30:06.865Z,19.84
2017-09-05T09:31:07.027Z,19.69
2017-09-05T09:32:07.515Z,19.93
2017-09-05T09:33:07.342Z,20.71
2017-09-05T09:34:07.084Z,21.30
2017-09-05T09:35:07.171Z,21.23
2017-09-05T09:36:07.298Z,20.99
2017-09-05T09:37:07.878Z,20.54
2017-09-05T09:38:07.465Z,20.28
2017-09-05T09:39:07.428Z,20.25
2017-09-05T09:40:07.350Z,20.23
2017-09-05T09:41:07.422Z,20.28
2017-09-05T09:42:07.670Z,20.02
2017-09-05T09:43:08.023Z,19.84
2017-09-05T09:44:07.697Z,19.84
2017-09-05T09:45:07.865Z,19.90
2017-09-05T09:46:07.904Z,20.06
2017-09-05T09:47:08.199Z,20.10
2017-09-05T09:48:07.999Z,19.98
2017-09-05T09:49:07.966Z,20.27
2017-09-05T09:50:08.033Z,20.79
2017-09-05T09:51:08.281Z,20.62
2017-09-05T09:52:08.214Z,20.08
2017-09-05T09:53:08.475Z,19.68
2017-09-05T09:54:08.095Z,19.60
2017-09-05T09:55:08.276Z,19.57
2017-09-05T09:56:08.807Z,19.55
2017-09-05T09:57:08.875Z,19.65
2017-09-05T09:58:08.728Z,19.53
2017-09-05T09:59:08.586Z,19.31
2017-09-05T10:00:08.477Z,19.17
2017-09-05T10:01:08.642Z,19.11
2017-09-05T10:02:08.792Z,19.10
2017-09-05T10:03:08.775Z,19.15
2017-09-05T10:04:08.814Z,19.18
2017-09-05T10:05:09.255Z,19.29
2017-09-05T10:06:08.729Z,19.51
2017-09-05T10:07:09.125Z,19.68
2017-09-05T10:08:09.182Z,20.08
2017-09-05T10:09:09.143Z,20.42
2017-09-05T10:10:09.050Z,20.58
2017-09-05T10:11:09.090Z,20.79
2017-09-05T10:12:09.206Z,20.69
2017-09-05T10:13:09.133Z,20.91
2017-09-05T10:14:09.685Z,20.93
2017-09-05T10:15:09.504Z,21.30
2017-09-05T10:16:09.612Z,21.71
2017-09-05T10:17:09.298Z,21.50
2017-09-05T10:18:09.673Z,21.78
2017-09-05T10:19:09.981Z,21.90
2017-09-05T10:20:09.697Z,21.50
2017-09-05T10:21:09.809Z,21.75
2017-09-05T10:22:09.680Z,22.02
2017-09-05T10:23:09.601Z,22.09
2017-09-05T10:24:10.169Z,21.98
2017-09-05T10:25:09.979Z,22.07
2017-09-05T10:26:10.042Z,22.02
2017-09-05T10:27:09.871Z,22.04
2017-09-05T10:28:10.090Z,22.29
2017-09-05T10:29:09.948Z,22.22
2017-09-05T10:30:10.542Z,22.17
2017-09-05T10:31:10.152Z,22.32
2017-09-05T10:32:10.087Z,22.43
2017-09-05T10:33:10.213Z,22.53
2017-09-05T10:34:10.282Z,22.64
2017-09-05T10:35:10.433Z,22.47
2017-09-05T10:36:10.538Z,22.62
2017-09-05T10:37:10.507Z,22.52
2017-09-05T10:38:10.785Z,22.50
2017-09-05T10:39:10.690Z,22.74
2017-09-05T10:40:10.729Z,22.64
2017-09-05T10:41:10.845Z,22.68
2017-09-05T10:42:10.678Z,22.78
2017-09-05T10:43:10.879Z,22.99
2017-09-05T10:44:10.782Z,23.08
2017-09-05T10:45:11.398Z,23.23
2017-09-05T10:46:11.281Z,23.47
2017-09-05T10:47:11.014Z,23.79
2017-09-05T10:48:10.983Z,23.87
2017-09-05T10:49:11.149Z,24.12
2017-09-05T10:50:11.145Z,24.10
2017-09-05T10:51:11.290Z,24.27
2017-09-05T10:52:11.376Z,24.37
2017-09-05T10:53:11.240Z,24.14
2017-09-05T10:54:11.757Z,24.23
2017-09-05T10:55:11.346Z,24.10
2017-09-05T10:56:11.835Z,23.87
2017-09-05T10:57:11.669Z,24.12
2017-09-05T10:58:11.915Z,24.24
2017-09-05T10:59:11.725Z,24.31
2017-09-05T11:00:11.697Z,24.26
2017-09-05T11:01:12.035Z,24.12
2017-09-05T11:02:12.185Z,24.13
2017-09-05T11:03:11.961Z,24.52
2017-09-05T11:04:12.180Z,24.47
2017-09-05T11:05:12.189Z,24.04
2017-09-05T11:06:12.482Z,24.01
2017-09-05T11:07:12.264Z,24.10
2017-09-05T11:08:12.363Z,24.42
2017-09-05T11:09:12.548Z,24.60
2017-09-05T11:10:12.503Z,24.42
2017-09-05T11:11:12.651Z,24.47
2017-09-05T11:12:13.188Z,24.22
2017-09-05T11:13:12.535Z,24.34
2017-09-05T11:14:12.662Z,24.10
2017-09-05T11:15:12.545Z,23.86
2017-09-05T11:16:13.060Z,24.00
2017-09-05T11:17:13.040Z,24.24
2017-09-05T11:18:12.753Z,24.39
2017-09-05T11:19:12.929Z,24.37
2017-09-05T11:20:13.007Z,24.34
2017-09-05T11:21:12.876Z,24.52
2017-09-05T11:22:13.260Z,24.50
2017-09-05T11:23:12.980Z,24.64
2017-09-05T11:24:13.082Z,24.75
2017-09-05T11:25:13.494Z,24.44
2017-09-05T11:26:13.291Z,24.83
2017-09-05T11:27:13.738Z,24.92
2017-09-05T11:28:13.767Z,24.88
2017-09-05T11:29:13.303Z,25.30
2017-09-05T11:30:13.435Z,25.30
2017-09-05T11:31:13.462Z,25.06
2017-09-05T11:32:13.745Z,25.07
2017-09-05T11:33:13.579Z,24.98
2017-09-05T11:34:13.604Z,24.68
2017-09-05T11:35:13.796Z,24.77
2017-09-05T11:36:14.080Z,24.85
2017-09-05T11:37:14.345Z,25.00
2017-09-05T11:38:14.069Z,24.76
2017-09-05T11:39:14.025Z,24.77
2017-09-05T11:40:14.138Z,24.56
2017-09-05T11:41:14.362Z,24.88
2017-09-05T11:42:14.578Z,24.90
2017-09-05T11:43:14.447Z,24.91
2017-09-05T11:44:14.345Z,25.19
2017-09-05T11:45:14.304Z,25.30
2017-09-05T11:46:14.398Z,24.61
2017-09-05T11:47:14.726Z,24.52
2017-09-05T11:48:14.406Z,24.63
2017-09-05T11:49:14.613Z,24.69
2017-09-05T11:50:14.548Z,24.63
2017-09-05T11:51:14.768Z,24.47
2017-09-05T11:52:15.151Z,24.47
2017-09-05T11:53:14.955Z,24.44
2017-09-05T11:54:15.138Z,24.77
2017-09-05T11:55:14.879Z,24.87
2017-09-05T11:56:14.939Z,24.63
2017-09-05T11:57:15.099Z,25.05
2017-09-05T11:58:15.093Z,25.01
2017-09-05T11:59:15.060Z,25.06
2017-09-05T12:00:15.310Z,25.50
2017-09-05T12:01:15.921Z,25.91
2017-09-05T12:02:15.683Z,25.64
2017-09-05T12:03:15.400Z,25.50
2017-09-05T12:04:15.364Z,25.59
2017-09-05T12:05:15.662Z,25.98
2017-09-05T12:06:15.668Z,26.09
2017-09-05T12:07:16.025Z,26.12
2017-09-05T12:08:16.029Z,26.43
2017-09-05T12:09:15.744Z,26.67
2017-09-05T12:10:15.804Z,26.42
2017-09-05T12:11:15.962Z,26.39
2017-09-05T12:12:15.958Z,26.27
2017-09-05T12:13:16.397Z,26.52
2017-09-05T12:14:16.049Z,26.64
2017-09-05T12:15:16.193Z,26.62
2017-09-05T12:16:16.025Z,26.52
2017-09-05T12:17:16.084Z,26.62
2017-09-05T12:18:16.621Z,26.32
2017-09-05T12:19:16.395Z,26.44
2017-09-05T12:20:16.499Z,26.76
2017-09-05T12:21:16.627Z,27.06
2017-09-05T12:22:16.417Z,27.32
2017-09-05T12:23:16.914Z,27.33
2017-09-05T12:24:16.798Z,27.41
2017-09-05T12:25:16.568Z,27.10
2017-09-05T12:26:17.263Z,26.64
2017-09-05T12:27:16.951Z,26.28
2017-09-05T12:28:16.929Z,26.32
2017-09-05T12:29:16.949Z,26.12
2017-09-05T12:30:17.245Z,25.91
2017-09-05T12:31:17.020Z,25.93
2017-09-05T12:32:17.203Z,26.32
2017-09-05T12:33:17.384Z,26.55
2017-09-05T12:34:17.338Z,26.69
2017-09-05T12:35:17.177Z,26.50
2017-09-05T12:36:17.239Z,26.65
2017-09-05T12:37:17.484Z,26.84
2017-09-05T12:38:17.618Z,27.11
2017-09-05T12:39:17.712Z,26.86
2017-09-05T12:40:17.650Z,26.76
2017-09-05T12:41:17.599Z,26.67
2017-09-05T12:42:17.589Z,26.59
2017-09-05T12:43:18.081Z,26.67
2017-09-05T12:44:18.369Z,26.62
2017-09-05T12:45:17.861Z,26.25
2017-09-05T12:46:17.815Z,26.12
2017-09-05T12:47:18.117Z,26.17
2017-09-05T12:48:18.432Z,26.35
2017-09-05T12:49:18.572Z,26.17
2017-09-05T12:50:18.085Z,25.89
2017-09-05T12:51:18.267Z,26.18
2017-09-05T12:52:18.740Z,26.47
2017-09-05T12:53:18.358Z,26.84